Time;durP1;ratioP1;P1;durP2;ratioP2;P2;SDS_P1;SDS_P2;PMS_P1;PMS_P2;Temp;Humidity;BMP_temperature;BMP_pressure;BME280_temperature;BME280_humidity;BME280_pressure;Samples;Min_cycle;Max_cycle;Signal;HPM_P1;HPM_P2
2021/05/11 00:05:00;;;;;;;4.13;3.07;;;;;;;15.13;68.89;100320.75;20879167;27;21162;-60
2021/05/11 00:24:58;;;;;;;3.70;3.40;;;;;;;14.83;70.73;100328.66;20863583;27;20581;-60
2021/05/11 00:34:59;;;;;;;3.40;3.13;;;;;;;14.65;71.60;100337.22;20864201;28;20284;-60
2021/05/11 01:04:56;;;;;;;2.43;2.23;;;;;;;14.17;72.98;100316.97;20875866;27;20544;-60
2021/05/11 01:14:56;;;;;;;4.13;3.00;;;;;;;13.98;73.96;100331.84;20852817;28;20245;-60
2021/05/11 02:35:41;;;;;;;4.67;4.10;;;;;;;13.79;76.21;100298.50;20797415;28;20631;-61
2021/05/11 03:05:35;;;;;;;6.00;5.40;;;;;;;13.62;76.49;100294.47;20975264;27;20557;-60
2021/05/11 03:15:35;;;;;;;8.07;5.77;;;;;;;13.82;75.22;100296.44;20950804;28;20218;-60
2021/05/11 03:25:36;;;;;;;5.27;4.77;;;;;;;14.46;73.96;100314.69;20913650;28;20218;-60
2021/05/11 03:35:36;;;;;;;5.90;4.70;;;;;;;15.34;70.95;100315.41;20954528;28;20309;-62
2021/05/11 03:45:42;;;;;;;4.73;4.00;;;;;;;16.84;66.16;100312.16;20931824;28;20224;-60
2021/05/11 03:55:42;;;;;;;4.37;3.90;;;;;;;18.18;62.89;100321.19;20934528;28;20211;-61
2021/05/11 04:05:43;;;;;;;3.90;3.60;;;;;;;18.95;62.42;100324.44;20930736;28;20568;-61
2021/05/11 04:26:02;;;;;;;4.20;3.87;;;;;;;18.94;60.86;100309.19;20796079;28;20326;-61
2021/05/11 04:36:04;;;;;;;5.20;4.10;;;;;;;18.68;62.59;100314.47;20864359;28;20814;-61
2021/05/11 04:56:06;;;;;;;4.70;4.30;;;;;;;18.39;61.89;100318.28;20781506;28;20255;-60
2021/05/11 05:06:06;;;;;;;5.27;4.50;;;;;;;18.07;60.43;100314.13;20776382;28;20655;-60
2021/05/11 05:16:07;;;;;;;4.20;3.80;;;;;;;17.67;61.17;100305.41;20765505;28;21356;-60
2021/05/11 05:26:10;;;;;;;5.00;4.60;;;;;;;17.47;61.31;100305.41;20762557;28;20582;-60
2021/05/11 05:36:10;;;;;;;5.20;4.70;;;;;;;17.46;61.72;100298.28;20780624;28;20263;-61
2021/05/11 05:46:11;;;;;;;7.10;3.77;;;;;;;17.56;61.56;100290.19;20783809;28;20238;-62
2021/05/11 05:56:16;;;;;;;12.83;5.17;;;;;;;17.75;59.83;100281.25;20759941;28;20250;-62
2021/05/11 06:06:16;;;;;;;6.17;4.30;;;;;;;18.01;59.72;100287.69;20774976;28;20652;-61
2021/05/11 06:26:36;;;;;;;15.10;4.70;;;;;;;18.53;57.25;100255.63;20769693;28;20223;-63
2021/05/11 06:36:36;;;;;;;7.87;4.57;;;;;;;18.80;56.59;100246.69;20785684;28;20239;-71
2021/05/11 06:56:56;;;;;;;5.83;3.93;;;;;;;19.53;55.42;100253.63;20770716;28;20467;-65
2021/05/11 07:06:58;;;;;;;5.63;3.27;;;;;;;19.87;55.14;100253.69;20734236;28;20226;-66
2021/05/11 07:16:59;;;;;;;5.97;3.60;;;;;;;20.24;54.44;100247.97;20737156;28;20254;-63
2021/05/11 07:37:09;;;;;;;8.67;3.20;;;;;;;20.92;51.68;100217.19;20777207;28;20720;-64
2021/05/11 08:37:58;;;;;;;5.23;3.10;;;;;;;22.50;50.49;100238.19;20682875;28;20255;-63
2021/05/11 08:47:59;;;;;;;4.63;2.70;;;;;;;22.81;50.23;100229.22;20707339;28;20232;-64
2021/05/11 09:08:58;;;;;;;5.83;2.60;;;;;;;23.43;46.56;100220.91;20796326;28;20236;-64
2021/05/11 09:29:39;;;;;;;3.93;2.93;;;;;;;24.10;45.03;100210.88;20782689;28;25519;-65
2021/05/11 10:11:34;;;;;;;8.83;3.17;;;;;;;24.73;44.68;100166.59;20788202;28;21680;-65
2021/05/11 10:42:43;;;;;;;178.00;11.73;;;;;;;25.40;40.84;100155.25;20763708;28;20248;-64
2021/05/11 10:52:42;;;;;;;14.03;2.93;;;;;;;25.48;42.51;100152.34;20751077;28;20238;-76
2021/05/11 11:02:47;;;;;;;3.53;2.63;;;;;;;25.32;44.13;100122.63;20768134;28;20788;-64
2021/05/11 11:12:48;;;;;;;138.40;8.87;;;;;;;25.70;40.83;100138.69;20747530;28;20230;-65
2021/05/11 11:33:19;;;;;;;9.03;2.93;;;;;;;25.78;40.77;100119.38;20796118;28;20689;-67
2021/05/11 11:43:29;;;;;;;15.20;3.30;;;;;;;25.91;40.61;100127.63;20815417;28;20228;-63
2021/05/11 11:53:35;;;;;;;10.13;3.20;;;;;;;25.99;41.73;100111.06;20768150;28;20220;-63
2021/05/11 12:03:36;;;;;;;10.60;3.23;;;;;;;26.05;41.45;100102.06;20776433;28;20235;-64
2021/05/11 12:13:38;;;;;;;11.07;2.53;;;;;;;26.13;41.88;100090.91;20775192;28;20223;-63
2021/05/11 12:23:39;;;;;;;8.50;2.77;;;;;;;26.25;41.68;100071.16;20785496;28;20237;-63
2021/05/11 12:33:42;;;;;;;4.90;2.53;;;;;;;26.34;41.61;100075.44;20794775;28;20647;-62
2021/05/11 12:43:52;;;;;;;4.80;2.60;;;;;;;26.32;41.05;100072.09;20779990;28;20239;-64
2021/05/11 12:53:54;;;;;;;17.40;3.33;;;;;;;26.39;40.80;100048.31;20796461;28;21063;-62
2021/05/11 13:14:45;;;;;;;4.83;2.53;;;;;;;26.45;42.39;100044.72;20790233;28;20231;-61
2021/05/11 13:34:52;;;;;;;10.93;2.93;;;;;;;26.56;41.41;100037.81;20784019;28;20236;-64
2021/05/11 13:44:56;;;;;;;47.50;4.40;;;;;;;26.60;41.06;100006.22;20767786;28;20992;-65
2021/05/11 13:55:02;;;;;;;4.40;2.60;;;;;;;26.65;43.57;100034.66;20768480;28;20227;-63
2021/05/11 14:05:03;;;;;;;6.50;2.80;;;;;;;26.66;41.84;100014.44;20773040;28;20238;-62
2021/05/11 14:15:06;;;;;;;10.47;2.80;;;;;;;26.66;41.35;100000.75;20728147;28;20243;-61
2021/05/11 14:25:07;;;;;;;35.00;4.37;;;;;;;26.58;40.71;99998.22;20767075;28;20247;-61
2021/05/11 14:35:09;;;;;;;3.60;2.60;;;;;;;26.59;42.96;99996.31;20765745;28;20227;-62
2021/05/11 14:45:11;;;;;;;3.23;2.30;;;;;;;26.51;40.96;99972.75;20778372;28;20224;-62
2021/05/11 14:55:17;;;;;;;11.70;3.03;;;;;;;26.48;40.05;99984.09;20740318;28;20232;-64
2021/05/11 15:05:17;;;;;;;13.03;3.00;;;;;;;26.36;39.65;99967.47;20780113;28;20243;-61
2021/05/11 15:15:20;;;;;;;6.23;2.17;;;;;;;26.38;41.68;99978.22;20782457;28;20219;-65
2021/05/11 15:25:22;;;;;;;4.40;2.10;;;;;;;26.38;42.13;99964.53;20786393;28;20352;-62
2021/05/11 15:35:33;;;;;;;4.33;1.93;;;;;;;26.10;41.87;99921.75;20734387;28;20285;-61
2021/05/11 15:45:34;;;;;;;6.27;2.07;;;;;;;26.23;41.93;99931.88;20737837;28;20223;-63
2021/05/11 15:55:38;;;;;;;6.40;2.30;;;;;;;26.10;41.23;99951.00;20774236;28;20216;-64
2021/05/11 16:05:39;;;;;;;2.63;1.77;;;;;;;26.02;43.13;99930.16;20746302;28;20727;-61
2021/05/11 16:15:39;;;;;;;3.90;1.77;;;;;;;25.92;42.49;99935.19;20742178;28;20299;-60
2021/05/11 16:25:40;;;;;;;36.70;2.80;;;;;;;25.62;41.79;99939.31;20783723;28;20235;-62
2021/05/11 16:35:42;;;;;;;4.67;2.23;;;;;;;25.37;42.22;99925.31;20753235;28;20224;-58
2021/05/11 16:45:42;;;;;;;6.20;2.50;;;;;;;25.11;41.09;99928.78;20785310;28;20223;-73
2021/05/11 16:55:43;;;;;;;7.63;1.70;;;;;;;25.03;41.88;99929.78;20780971;28;21553;-62
2021/05/11 17:05:44;;;;;;;3.93;1.80;;;;;;;25.75;39.83;99939.34;20786036;28;20282;-60
2021/05/11 17:15:44;;;;;;;8.50;2.67;;;;;;;25.97;39.21;99915.41;20758308;28;21066;-66
2021/05/11 17:25:47;;;;;;;4.60;2.10;;;;;;;25.86;38.37;99899.63;20752273;28;20909;-59
2021/05/11 17:35:51;;;;;;;5.50;2.00;;;;;;;25.53;39.97;99935.03;20777301;28;20277;-59
2021/05/11 17:45:54;;;;;;;4.07;1.90;;;;;;;24.73;42.28;99929.16;20769404;28;20309;-63
2021/05/11 17:55:54;;;;;;;10.63;2.70;;;;;;;23.90;42.34;99921.69;20781972;28;20225;-60
2021/05/11 18:05:55;;;;;;;3.77;2.10;;;;;;;23.28;43.47;99933.09;20750895;28;20224;-71
2021/05/11 18:15:56;;;;;;;3.77;1.60;;;;;;;22.73;44.59;99943.56;20779702;28;20231;-61
2021/05/11 18:25:57;;;;;;;2.87;1.73;;;;;;;22.10;45.04;99944.81;20778381;28;20220;-57
2021/05/11 18:36:00;;;;;;;5.63;2.20;;;;;;;21.83;45.62;99962.50;20767786;28;20231;-63
2021/05/11 18:46:01;;;;;;;2.37;2.17;;;;;;;21.42;47.02;99959.16;20759659;28;20235;-64
2021/05/11 18:56:02;;;;;;;4.87;2.13;;;;;;;20.98;48.32;99973.22;20784631;28;20235;-67
2021/05/11 19:06:02;;;;;;;6.17;2.53;;;;;;;20.65;49.19;99969.69;20787161;28;20461;-76
2021/05/11 19:16:07;;;;;;;3.00;2.40;;;;;;;20.46;50.23;99979.03;20794309;28;20703;-70
2021/05/11 19:26:10;;;;;;;6.57;2.70;;;;;;;20.29;49.64;99961.06;20708765;28;20243;-65
2021/05/11 19:36:15;;;;;;;10.63;2.90;;;;;;;20.08;50.23;99963.44;20663214;28;20239;-69
2021/05/11 19:46:16;;;;;;;3.07;2.67;;;;;;;19.93;51.11;99965.94;20716854;28;20345;-68
2021/05/11 19:56:16;;;;;;;7.03;3.53;;;;;;;19.72;50.30;99962.88;20697568;28;21223;-66
2021/05/11 20:06:18;;;;;;;7.80;3.50;;;;;;;19.59;49.94;99960.63;20748234;28;20235;-61
2021/05/11 20:16:20;;;;;;;4.10;3.30;;;;;;;19.50;50.78;99950.81;20729584;28;20324;-61
2021/05/11 20:26:21;;;;;;;3.33;2.70;;;;;;;19.28;50.06;99954.06;20692040;28;20626;-62
2021/05/11 20:36:26;;;;;;;5.97;3.17;;;;;;;19.14;50.68;99957.41;20667734;28;20229;-61
2021/05/11 20:46:26;;;;;;;3.50;3.20;;;;;;;18.99;50.52;99955.28;20710545;28;20875;-62
2021/05/11 20:56:28;;;;;;;4.37;2.80;;;;;;;18.89;48.62;99943.75;20733981;28;20236;-68
2021/05/11 21:16:25;;;;;;;3.27;2.60;;;;;;;18.60;48.82;99927.00;21051821;27;20569;-63
2021/05/11 21:36:33;;;;;;;4.53;2.40;;;;;;;18.35;48.91;99940.31;21037382;27;855362;-63
2021/05/11 22:46:31;;;;;;;4.27;2.27;;;;;;;17.16;49.01;99921.75;20911609;27;20606;-64
2021/05/11 22:56:32;;;;;;;2.93;2.50;;;;;;;16.98;49.75;99903.84;20857481;28;20223;-64
2021/05/11 23:26:24;;;;;;;3.37;2.60;;;;;;;16.55;49.18;99875.63;21077734;27;20567;-63
2021/05/11 23:46:25;;;;;;;5.23;2.70;;;;;;;16.30;48.77;99860.97;20882391;27;20594;-66
